createdAt,value
2023-03-26T00:01:10.889Z,9.52
2023-03-26T00:03:39.028Z,9.69
2023-03-26T00:06:13.222Z,9.83
2023-03-26T00:08:42.361Z,9.90
2023-03-26T00:11:11.695Z,9.82
2023-03-26T00:13:38.830Z,9.91
2023-03-26T00:16:05.699Z,9.98
2023-03-26T00:18:34.880Z,9.95
2023-03-26T00:21:03.751Z,9.79
2023-03-26T00:23:32.131Z,9.71
2023-03-26T00:25:58.557Z,9.77
2023-03-26T00:28:26.453Z,9.86
2023-03-26T00:31:02.980Z,9.83
2023-03-26T00:33:35.185Z,9.89
2023-03-26T00:36:04.345Z,9.92
2023-03-26T00:38:31.363Z,9.87
2023-03-26T00:41:05.962Z,9.85
2023-03-26T00:43:36.123Z,9.94
2023-03-26T00:46:03.144Z,9.90
2023-03-26T00:48:42.217Z,9.88
2023-03-26T00:51:13.288Z,9.86
2023-03-26T00:53:41.488Z,9.90
2023-03-26T00:56:09.384Z,9.85
2023-03-26T00:58:37.592Z,9.88
2023-03-26T01:01:16.421Z,9.93
2023-03-26T01:04:00.818Z,9.99
2023-03-26T01:06:36.835Z,10.05
2023-03-26T01:09:20.901Z,9.86
2023-03-26T01:11:48.720Z,9.84
2023-03-26T01:14:19.310Z,9.68
2023-03-26T01:16:54.834Z,9.73
2023-03-26T01:19:33.826Z,9.69
2023-03-26T01:22:00.675Z,9.77
2023-03-26T01:24:27.148Z,9.72
2023-03-26T01:27:04.348Z,9.65
2023-03-26T01:29:39.348Z,9.75
2023-03-26T01:32:27.442Z,9.78
2023-03-26T01:35:09.199Z,9.80
2023-03-26T01:38:01.918Z,9.92
2023-03-26T01:40:29.963Z,9.89
2023-03-26T01:43:08.972Z,9.78
2023-03-26T01:45:39.284Z,9.63
2023-03-26T01:48:07.964Z,9.58
2023-03-26T01:50:34.299Z,9.49
2023-03-26T01:53:01.161Z,9.49
2023-03-26T01:55:44.480Z,9.54
2023-03-26T01:58:29.150Z,9.61
2023-03-26T02:01:06.365Z,9.74
2023-03-26T02:03:42.091Z,9.85
2023-03-26T02:06:23.820Z,9.85
2023-03-26T02:09:05.519Z,9.75
2023-03-26T02:11:35.344Z,9.78
2023-03-26T02:14:04.551Z,9.79
2023-03-26T02:16:30.999Z,9.71
2023-03-26T02:18:59.283Z,9.86
2023-03-26T02:21:26.947Z,9.90
2023-03-26T02:24:03.467Z,9.76
2023-03-26T02:26:32.094Z,9.52
2023-03-26T02:28:59.357Z,9.43
2023-03-26T02:31:26.503Z,9.39
2023-03-26T02:33:55.537Z,9.48
2023-03-26T02:36:27.947Z,9.33
2023-03-26T02:38:55.615Z,9.39
2023-03-26T02:41:22.285Z,9.50
2023-03-26T02:43:48.920Z,9.60
2023-03-26T02:46:15.589Z,9.68
2023-03-26T02:48:42.967Z,9.81
2023-03-26T02:51:09.666Z,9.73
2023-03-26T02:53:37.505Z,9.66
2023-03-26T02:56:04.323Z,9.64
2023-03-26T02:58:30.772Z,9.60
2023-03-26T03:00:57.281Z,9.55
2023-03-26T03:03:25.449Z,9.65
2023-03-26T03:05:53.474Z,9.75
2023-03-26T03:08:26.266Z,9.72
2023-03-26T03:11:08.152Z,9.72
2023-03-26T03:13:34.762Z,9.66
2023-03-26T03:16:01.178Z,9.49
2023-03-26T03:18:27.672Z,9.34
2023-03-26T03:20:54.522Z,9.25
2023-03-26T03:23:21.340Z,9.39
2023-03-26T03:25:48.732Z,9.49
2023-03-26T03:28:18.172Z,9.61
2023-03-26T03:30:45.736Z,9.59
2023-03-26T03:33:13.272Z,9.67
2023-03-26T03:35:40.139Z,9.64
2023-03-26T03:38:06.621Z,9.74
2023-03-26T03:40:33.231Z,9.89
2023-03-26T03:42:59.640Z,9.74
2023-03-26T03:45:26.137Z,9.59
2023-03-26T03:47:53.167Z,9.57
2023-03-26T03:50:19.897Z,9.51
2023-03-26T03:52:46.378Z,9.51
2023-03-26T03:55:14.274Z,9.52
2023-03-26T03:57:40.931Z,9.50
2023-03-26T04:00:11.718Z,9.65
2023-03-26T04:02:39.044Z,9.72
2023-03-26T04:05:06.104Z,9.76
2023-03-26T04:07:33.065Z,9.70
2023-03-26T04:10:00.352Z,9.73
2023-03-26T04:12:28.414Z,9.87
2023-03-26T04:14:56.059Z,9.76
2023-03-26T04:17:23.376Z,9.61
2023-03-26T04:19:52.798Z,9.46
2023-03-26T04:22:19.594Z,9.60
2023-03-26T04:24:46.010Z,9.61
2023-03-26T04:27:16.504Z,9.77
2023-03-26T04:29:46.698Z,9.88
2023-03-26T04:32:26.479Z,9.83
2023-03-26T04:34:53.672Z,9.84
2023-03-26T04:37:27.675Z,9.78
2023-03-26T04:39:55.296Z,9.72
2023-03-26T04:42:21.721Z,9.79
2023-03-26T04:44:50.856Z,9.85
2023-03-26T04:47:18.440Z,9.93
2023-03-26T04:49:47.335Z,10.00
2023-03-26T04:52:15.043Z,10.02
2023-03-26T04:54:44.418Z,10.07
2023-03-26T04:57:32.602Z,9.93
2023-03-26T04:59:59.023Z,9.75
2023-03-26T05:02:26.232Z,9.72
2023-03-26T05:04:52.997Z,9.72
2023-03-26T05:07:22.697Z,9.74
2023-03-26T05:09:49.622Z,9.80
2023-03-26T05:12:16.718Z,9.47
2023-03-26T05:14:45.592Z,9.37
2023-03-26T05:17:14.768Z,9.48
2023-03-26T05:19:41.752Z,9.65
2023-03-26T05:22:08.215Z,9.49
2023-03-26T05:24:34.755Z,9.30
2023-03-26T05:27:01.202Z,9.34
2023-03-26T05:29:27.879Z,9.32
2023-03-26T05:31:54.285Z,9.23
2023-03-26T05:34:24.118Z,9.33
2023-03-26T05:36:50.592Z,9.39
2023-03-26T05:39:17.035Z,9.39
2023-03-26T05:41:44.700Z,9.53
2023-03-26T05:44:11.240Z,9.76
2023-03-26T05:46:37.999Z,9.84
2023-03-26T05:49:04.404Z,9.95
2023-03-26T05:51:31.460Z,9.94
2023-03-26T05:53:58.175Z,9.98
2023-03-26T05:56:24.629Z,10.01
2023-03-26T05:58:52.081Z,9.67
2023-03-26T06:01:19.610Z,9.63
2023-03-26T06:03:46.870Z,9.76
2023-03-26T06:06:16.422Z,9.85
2023-03-26T06:09:01.035Z,9.68
2023-03-26T06:11:29.353Z,9.68
2023-03-26T06:13:55.797Z,9.64
2023-03-26T06:16:26.324Z,9.79
2023-03-26T06:18:56.169Z,9.82
2023-03-26T06:21:24.455Z,9.94
2023-03-26T06:23:51.655Z,9.98
2023-03-26T06:26:18.336Z,10.02
2023-03-26T06:28:44.873Z,10.11
2023-03-26T06:31:11.910Z,10.17
2023-03-26T06:33:38.574Z,10.18
2023-03-26T06:36:05.490Z,10.18
2023-03-26T06:38:32.067Z,10.21
2023-03-26T06:41:06.193Z,10.25
2023-03-26T06:43:33.950Z,10.35
2023-03-26T06:46:01.343Z,10.39
2023-03-26T06:48:27.964Z,10.30
2023-03-26T06:50:54.911Z,10.31
2023-03-26T06:53:21.668Z,10.44
2023-03-26T06:55:48.680Z,10.47
2023-03-26T06:58:16.680Z,10.42
2023-03-26T07:00:44.224Z,10.46
2023-03-26T07:03:11.502Z,10.55
2023-03-26T07:05:41.005Z,10.59
2023-03-26T07:08:07.535Z,10.61
2023-03-26T07:10:34.045Z,10.64
2023-03-26T07:13:00.627Z,10.64
2023-03-26T07:15:28.424Z,10.58
2023-03-26T07:17:54.903Z,10.48
2023-03-26T07:20:21.841Z,10.58
2023-03-26T07:22:48.677Z,10.59
2023-03-26T07:25:15.724Z,10.58
2023-03-26T07:27:55.195Z,10.49
2023-03-26T07:30:28.936Z,10.55
2023-03-26T07:33:25.704Z,10.56
2023-03-26T07:35:55.116Z,10.30
2023-03-26T07:38:53.773Z,10.30
2023-03-26T07:41:29.265Z,10.35
2023-03-26T07:44:18.032Z,10.32
2023-03-26T07:46:47.858Z,10.22
2023-03-26T07:49:14.795Z,10.27
2023-03-26T07:51:41.429Z,10.19
2023-03-26T07:54:10.674Z,9.98
2023-03-26T07:56:46.219Z,10.19
2023-03-26T07:59:34.394Z,10.26
2023-03-26T08:02:09.707Z,10.21
2023-03-26T08:04:57.353Z,10.46
2023-03-26T08:08:05.056Z,10.50
2023-03-26T08:10:57.832Z,10.61
2023-03-26T08:13:46.046Z,10.61
2023-03-26T08:16:23.237Z,10.53
2023-03-26T08:19:11.093Z,10.49
2023-03-26T08:22:01.283Z,10.15
2023-03-26T08:24:39.209Z,9.93
2023-03-26T08:27:18.691Z,9.88
2023-03-26T08:30:03.604Z,9.99
2023-03-26T08:32:30.431Z,10.01
2023-03-26T08:35:04.308Z,9.99
2023-03-26T08:37:31.261Z,9.93
2023-03-26T08:39:57.732Z,10.00
2023-03-26T08:43:03.338Z,9.96
2023-03-26T08:45:51.420Z,10.03
2023-03-26T08:48:36.626Z,10.23
2023-03-26T08:51:24.520Z,10.29
2023-03-26T08:54:14.839Z,10.30
2023-03-26T08:57:19.684Z,10.27
2023-03-26T08:59:54.674Z,10.29
2023-03-26T09:02:49.740Z,10.29
2023-03-26T09:05:54.931Z,10.24
2023-03-26T09:08:54.496Z,10.27
2023-03-26T09:11:53.626Z,10.19
2023-03-26T09:14:44.764Z,10.23
2023-03-26T09:17:26.595Z,10.32
2023-03-26T09:20:01.871Z,10.15
2023-03-26T09:22:53.330Z,9.78
2023-03-26T09:25:53.125Z,9.71
2023-03-26T09:28:28.299Z,9.75
2023-03-26T09:31:07.564Z,9.48
2023-03-26T09:34:05.000Z,9.34
2023-03-26T09:37:06.355Z,9.32
2023-03-26T09:39:57.706Z,9.53
2023-03-26T09:42:37.571Z,9.34
2023-03-26T09:45:15.993Z,9.37
2023-03-26T09:48:05.559Z,9.26
2023-03-26T09:50:54.233Z,9.23
2023-03-26T09:53:43.181Z,9.17
2023-03-26T09:56:16.593Z,9.03
2023-03-26T09:58:53.008Z,8.97
2023-03-26T10:01:57.848Z,9.06
2023-03-26T10:04:44.279Z,9.11
2023-03-26T10:07:46.408Z,9.27
2023-03-26T10:10:13.233Z,9.36
2023-03-26T10:12:44.265Z,9.56
2023-03-26T10:15:19.715Z,9.72
2023-03-26T10:17:48.760Z,9.80
2023-03-26T10:20:33.922Z,9.94
2023-03-26T10:23:09.119Z,10.05
2023-03-26T10:25:59.100Z,10.06
2023-03-26T10:29:04.663Z,10.13
2023-03-26T10:31:40.540Z,10.30
2023-03-26T10:34:28.566Z,10.45
2023-03-26T10:38:04.656Z,10.52
2023-03-26T10:41:15.437Z,10.54
2023-03-26T10:44:07.832Z,10.61
2023-03-26T10:47:13.392Z,10.61
2023-03-26T10:50:05.053Z,10.95
2023-03-26T10:52:51.867Z,10.88
2023-03-26T10:55:36.446Z,11.08
2023-03-26T10:58:05.941Z,11.03
2023-03-26T11:00:37.689Z,10.90
2023-03-26T11:03:10.122Z,10.68
2023-03-26T11:05:51.867Z,10.61
2023-03-26T11:08:41.533Z,10.79
2023-03-26T11:11:22.961Z,10.97
2023-03-26T11:14:11.044Z,10.99
2023-03-26T11:16:50.881Z,11.24
2023-03-26T11:19:22.365Z,11.42
2023-03-26T11:22:00.419Z,11.66
2023-03-26T11:24:47.970Z,11.74
2023-03-26T11:27:40.764Z,11.70
2023-03-26T11:30:14.729Z,11.73
2023-03-26T11:32:54.680Z,11.60
2023-03-26T11:35:41.686Z,11.20
2023-03-26T11:38:31.790Z,11.12
2023-03-26T11:41:01.701Z,10.71
2023-03-26T11:43:33.544Z,10.53
2023-03-26T11:46:03.109Z,10.49
2023-03-26T11:48:38.261Z,10.57
2023-03-26T11:51:08.633Z,10.75
2023-03-26T11:53:38.602Z,10.51
2023-03-26T11:56:18.329Z,10.57
2023-03-26T11:58:52.036Z,10.55
2023-03-26T12:01:32.020Z,10.44
2023-03-26T12:04:29.400Z,10.43
2023-03-26T12:07:08.874Z,10.46
2023-03-26T12:09:35.331Z,10.45
2023-03-26T12:12:04.344Z,10.57
2023-03-26T12:14:34.573Z,10.71
2023-03-26T12:17:11.863Z,10.96
2023-03-26T12:19:43.199Z,11.01
2023-03-26T12:22:37.291Z,11.23
2023-03-26T12:25:19.175Z,11.34
2023-03-26T12:27:58.726Z,11.51
2023-03-26T12:30:28.078Z,11.74
2023-03-26T12:33:14.541Z,11.88
2023-03-26T12:35:41.367Z,11.99
2023-03-26T12:38:21.876Z,12.09
2023-03-26T12:40:49.126Z,12.05
2023-03-26T12:44:55.668Z,11.95
2023-03-26T12:47:56.147Z,12.08
2023-03-26T12:49:15.873Z,11.87
2023-03-26T12:51:58.716Z,11.87
2023-03-26T12:54:43.009Z,11.90
2023-03-26T12:57:32.046Z,11.96
2023-03-26T13:00:01.678Z,11.96
2023-03-26T13:02:58.874Z,11.97
2023-03-26T13:05:50.643Z,11.84
2023-03-26T13:08:55.723Z,11.75
2023-03-26T13:11:48.467Z,12.01
2023-03-26T13:14:33.296Z,11.80
2023-03-26T13:17:09.060Z,11.54
2023-03-26T13:19:48.847Z,11.24
2023-03-26T13:22:32.644Z,11.21
2023-03-26T13:25:27.866Z,11.64
2023-03-26T13:27:58.651Z,12.41
2023-03-26T13:30:41.683Z,12.93
2023-03-26T13:34:05.252Z,13.15
2023-03-26T13:36:37.538Z,13.38
2023-03-26T13:39:04.853Z,12.88
2023-03-26T13:41:54.203Z,12.89
2023-03-26T13:44:52.778Z,13.71
2023-03-26T13:47:36.506Z,13.96
2023-03-26T13:50:15.793Z,13.89
2023-03-26T13:52:48.967Z,14.71
2023-03-26T13:55:22.206Z,17.22
2023-03-26T13:58:10.978Z,19.11
2023-03-26T14:00:56.070Z,19.79
2023-03-26T14:03:36.687Z,18.68
2023-03-26T14:06:35.518Z,17.46
2023-03-26T14:09:14.172Z,16.69
2023-03-26T14:12:06.488Z,16.37
2023-03-26T14:14:57.689Z,17.05
2023-03-26T14:17:38.548Z,19.55
2023-03-26T14:20:29.880Z,20.96
2023-03-26T14:23:11.538Z,20.86
2023-03-26T14:26:05.108Z,20.28
2023-03-26T14:28:53.723Z,19.49
2023-03-26T14:31:49.128Z,18.41
2023-03-26T14:34:43.662Z,17.43
2023-03-26T14:37:43.512Z,16.77
2023-03-26T14:40:28.462Z,16.34
2023-03-26T14:43:01.570Z,15.95
2023-03-26T14:46:01.531Z,15.53
2023-03-26T14:49:03.554Z,15.37
2023-03-26T14:51:48.660Z,14.99
2023-03-26T14:54:20.542Z,14.75
2023-03-26T14:57:09.779Z,14.19
2023-03-26T15:00:02.094Z,13.86
2023-03-26T15:02:47.930Z,13.81
2023-03-26T15:05:36.622Z,13.66
2023-03-26T15:08:33.842Z,13.51
2023-03-26T15:11:24.305Z,12.53
2023-03-26T15:13:54.639Z,12.11
2023-03-26T15:16:39.825Z,11.73
2023-03-26T15:19:16.780Z,11.30
2023-03-26T15:21:53.370Z,10.83
2023-03-26T15:24:22.785Z,10.70
2023-03-26T15:27:37.201Z,10.59
2023-03-26T15:30:31.466Z,10.67
2023-03-26T15:33:34.896Z,10.46
2023-03-26T15:36:33.371Z,10.08
2023-03-26T15:39:38.055Z,9.79
2023-03-26T15:42:22.621Z,9.97
2023-03-26T15:44:57.375Z,10.25
2023-03-26T15:47:53.938Z,10.54
2023-03-26T15:50:38.031Z,10.69
2023-03-26T15:53:33.581Z,10.62
2023-03-26T15:56:02.989Z,10.78
2023-03-26T15:59:00.626Z,11.17
2023-03-26T16:02:03.783Z,11.18
2023-03-26T16:04:51.674Z,11.13
2023-03-26T16:07:24.842Z,11.01
2023-03-26T16:10:29.140Z,11.25
2023-03-26T16:13:20.616Z,11.34
2023-03-26T16:15:58.449Z,11.45
2023-03-26T16:18:31.584Z,11.59
2023-03-26T16:21:31.361Z,11.75
2023-03-26T16:24:08.431Z,11.75
2023-03-26T16:26:54.282Z,11.61
2023-03-26T16:29:27.021Z,11.74
2023-03-26T16:32:12.459Z,11.79
2023-03-26T16:35:22.721Z,11.68
2023-03-26T16:38:04.540Z,11.71
2023-03-26T16:40:36.231Z,11.75
2023-03-26T16:43:30.864Z,12.00
2023-03-26T16:46:26.829Z,12.05
2023-03-26T16:49:08.236Z,11.92
2023-03-26T16:52:06.771Z,12.06
2023-03-26T16:55:06.562Z,12.00
2023-03-26T16:57:48.825Z,12.02
2023-03-26T17:00:49.205Z,11.62
2023-03-26T17:03:40.709Z,11.51
2023-03-26T17:06:23.214Z,11.36
2023-03-26T17:09:17.607Z,11.40
2023-03-26T17:12:00.673Z,11.34
2023-03-26T17:14:43.303Z,11.10
2023-03-26T17:17:18.957Z,10.86
2023-03-26T17:20:00.720Z,10.46
2023-03-26T17:22:38.880Z,10.23
2023-03-26T17:25:22.517Z,9.93
2023-03-26T17:28:11.920Z,9.68
2023-03-26T17:31:00.364Z,9.40
2023-03-26T17:33:30.895Z,9.30
2023-03-26T17:36:13.123Z,8.98
2023-03-26T17:38:39.488Z,8.86
2023-03-26T17:41:07.915Z,8.82
2023-03-26T17:43:45.443Z,8.86
2023-03-26T17:46:41.281Z,9.12
2023-03-26T17:49:14.441Z,9.22
2023-03-26T17:51:56.614Z,9.34
2023-03-26T17:54:31.102Z,9.41
2023-03-26T17:57:04.114Z,9.38
2023-03-26T17:59:32.738Z,9.39
2023-03-26T18:02:01.251Z,9.45
2023-03-26T18:04:37.514Z,9.29
2023-03-26T18:07:28.639Z,9.28
2023-03-26T18:10:39.813Z,9.32
2023-03-26T18:13:34.481Z,9.34
2023-03-26T18:16:15.076Z,9.36
2023-03-26T18:18:52.133Z,9.40
2023-03-26T18:21:35.967Z,9.41
2023-03-26T18:24:04.519Z,9.34
2023-03-26T18:26:46.833Z,9.17
2023-03-26T18:29:28.478Z,9.13
2023-03-26T18:32:00.973Z,9.09
2023-03-26T18:34:31.552Z,9.10
2023-03-26T18:37:16.751Z,9.08
2023-03-26T18:40:15.416Z,8.97
2023-03-26T18:42:47.165Z,8.92
2023-03-26T18:45:33.761Z,9.10
2023-03-26T18:48:04.828Z,9.18
2023-03-26T18:50:36.932Z,9.22
2023-03-26T18:53:06.913Z,9.34
2023-03-26T18:55:39.289Z,9.38
2023-03-26T18:58:34.914Z,8.96
2023-03-26T19:01:16.886Z,8.76
2023-03-26T19:03:50.622Z,8.72
2023-03-26T19:06:17.703Z,8.42
2023-03-26T19:08:45.673Z,8.66
2023-03-26T19:11:16.080Z,8.86
2023-03-26T19:13:43.452Z,8.96
2023-03-26T19:16:29.357Z,8.91
2023-03-26T19:18:58.874Z,8.98
2023-03-26T19:21:25.412Z,8.89
2023-03-26T19:23:52.473Z,8.89
2023-03-26T19:26:19.137Z,8.91
2023-03-26T19:28:50.778Z,8.98
2023-03-26T19:31:23.863Z,9.07
2023-03-26T19:34:11.487Z,9.22
2023-03-26T19:37:01.526Z,9.29
2023-03-26T19:39:41.605Z,9.33
2023-03-26T19:42:18.256Z,9.36
2023-03-26T19:44:45.030Z,9.24
2023-03-26T19:47:29.284Z,9.06
2023-03-26T19:50:01.790Z,8.91
2023-03-26T19:52:34.041Z,8.91
2023-03-26T19:55:06.808Z,8.89
2023-03-26T19:57:36.541Z,8.96
2023-03-26T20:00:09.316Z,8.94
2023-03-26T20:02:35.869Z,8.87
2023-03-26T20:05:02.432Z,8.92
2023-03-26T20:07:35.834Z,9.00
2023-03-26T20:10:05.546Z,8.70
2023-03-26T20:12:32.381Z,8.73
2023-03-26T20:14:58.817Z,8.87
2023-03-26T20:17:25.455Z,8.84
2023-03-26T20:19:54.145Z,8.58
2023-03-26T20:22:20.580Z,8.50
2023-03-26T20:24:47.564Z,8.44
2023-03-26T20:27:14.959Z,8.53
2023-03-26T20:29:43.318Z,8.61
2023-03-26T20:32:27.129Z,8.43
2023-03-26T20:34:54.051Z,8.33
2023-03-26T20:37:20.526Z,8.30
2023-03-26T20:39:46.996Z,8.33
2023-03-26T20:42:15.789Z,8.39
2023-03-26T20:44:43.058Z,8.55
2023-03-26T20:47:11.841Z,8.65
2023-03-26T20:49:38.417Z,8.67
2023-03-26T20:52:05.175Z,8.72
2023-03-26T20:54:31.698Z,8.66
2023-03-26T20:56:58.194Z,8.61
2023-03-26T20:59:30.498Z,8.67
2023-03-26T21:01:57.904Z,8.64
2023-03-26T21:04:26.112Z,8.69
2023-03-26T21:06:57.631Z,8.71
2023-03-26T21:09:35.479Z,8.84
2023-03-26T21:12:08.212Z,8.84
2023-03-26T21:14:40.963Z,8.89
2023-03-26T21:17:16.276Z,8.96
2023-03-26T21:19:45.799Z,8.98
2023-03-26T21:22:39.210Z,8.87
2023-03-26T21:25:32.117Z,8.64
2023-03-26T21:28:29.072Z,8.30
2023-03-26T21:31:15.197Z,8.10
2023-03-26T21:33:43.518Z,7.98
2023-03-26T21:36:10.692Z,7.86
2023-03-26T21:38:38.744Z,7.75
2023-03-26T21:41:08.219Z,7.95
2023-03-26T21:43:39.273Z,8.18
2023-03-26T21:46:06.410Z,8.15
2023-03-26T21:48:33.332Z,8.11
2023-03-26T21:51:04.271Z,8.15
2023-03-26T21:53:31.130Z,8.27
2023-03-26T21:56:09.888Z,8.26
2023-03-26T21:58:36.245Z,8.11
2023-03-26T22:01:35.760Z,8.17
2023-03-26T22:04:26.088Z,8.33
2023-03-26T22:07:03.369Z,8.40
2023-03-26T22:09:36.480Z,8.53
2023-03-26T22:12:04.538Z,8.50
2023-03-26T22:14:31.159Z,8.46
2023-03-26T22:16:57.514Z,8.46
2023-03-26T22:19:23.928Z,8.45
2023-03-26T22:21:54.432Z,8.30
2023-03-26T22:24:21.084Z,8.01
2023-03-26T22:26:47.648Z,7.92
2023-03-26T22:29:14.919Z,8.04
2023-03-26T22:31:41.853Z,8.02
2023-03-26T22:34:09.624Z,7.94
2023-03-26T22:36:36.749Z,7.93
2023-03-26T22:39:05.636Z,7.94
2023-03-26T22:41:32.117Z,8.07
2023-03-26T22:44:09.266Z,8.22
2023-03-26T22:46:40.343Z,8.15
2023-03-26T22:49:07.482Z,8.18
2023-03-26T22:51:33.958Z,8.27
2023-03-26T22:54:00.328Z,8.23
2023-03-26T22:56:27.760Z,8.13
2023-03-26T22:58:54.137Z,8.18
2023-03-26T23:01:23.947Z,8.30
2023-03-26T23:03:50.921Z,8.38
2023-03-26T23:06:17.767Z,8.29
2023-03-26T23:08:44.574Z,8.08
2023-03-26T23:11:16.915Z,7.88
2023-03-26T23:13:44.962Z,7.88
2023-03-26T23:16:14.490Z,7.90
2023-03-26T23:18:41.661Z,7.96
2023-03-26T23:21:15.031Z,8.02
2023-03-26T23:23:43.573Z,7.99
2023-03-26T23:26:10.789Z,7.75
2023-03-26T23:28:38.188Z,7.70
2023-03-26T23:31:07.763Z,7.69
2023-03-26T23:33:36.712Z,7.63
2023-03-26T23:36:07.407Z,7.47
2023-03-26T23:38:44.301Z,7.47
2023-03-26T23:41:14.795Z,7.62
2023-03-26T23:43:54.789Z,7.65
2023-03-26T23:46:34.678Z,7.61
2023-03-26T23:49:04.492Z,7.59
2023-03-26T23:51:32.043Z,7.60
2023-03-26T23:53:59.778Z,7.38
2023-03-26T23:56:29.817Z,7.22
2023-03-26T23:58:56.309Z,7.14
